Time;durP1;ratioP1;P1;durP2;ratioP2;P2;SDS_P1;SDS_P2;PMS_P1;PMS_P2;Temp;Humidity;BMP_temperature;BMP_pressure;BME280_temperature;BME280_humidity;BME280_pressure;Samples;Min_cycle;Max_cycle;Signal;HPM_P1;HPM_P2
2022/12/18 00:00:31;;;;;;;;;;;;;;;-4.89;87.43;99240.31;5083755;28;19935;-65
2022/12/18 00:02:57;;;;;;;;;;;;;;;-4.91;87.45;99234.34;5084200;28;20525;-65
2022/12/18 00:05:22;;;;;;;;;;;;;;;-4.92;87.44;99228.19;5082813;28;20034;-66
2022/12/18 00:07:48;;;;;;;;;;;;;;;-4.89;87.65;99224.31;5083448;28;19975;-66
2022/12/18 00:10:19;;;;;;;;;;;;;;;-4.91;87.74;99211.19;5085501;28;20151;-66
2022/12/18 00:12:45;;;;;;;;;;;;;;;-4.88;87.45;99216.13;5086500;28;19982;-65
2022/12/18 00:15:10;;;;;;;;;;;;;;;-4.88;87.44;99208.13;5066514;28;19932;-66
2022/12/18 00:17:38;;;;;;;;;;;;;;;-4.88;87.29;99208.13;5087528;28;20280;-65
2022/12/18 00:20:04;;;;;;;;;;;;;;;-4.87;87.05;99207.13;5085033;28;19932;-65
2022/12/18 00:22:29;;;;;;;;;;;;;;;-4.85;87.04;99202.41;5065890;28;19975;-65
2022/12/18 00:24:55;;;;;;;;;;;;;;;-4.86;87.00;99199.94;5084211;28;20373;-65
2022/12/18 00:27:21;;;;;;;;;;;;;;;-4.88;86.92;99194.81;5084568;28;19953;-65
2022/12/18 00:29:47;;;;;;;;;;;;;;;-4.89;87.01;99190.47;5066609;28;19993;-65
2022/12/18 00:32:13;;;;;;;;;;;;;;;-4.88;87.01;99191.28;5063251;28;19989;-65
2022/12/18 00:34:40;;;;;;;;;;;;;;;-4.84;87.01;99192.56;5083135;28;20371;-65
2022/12/18 00:37:08;;;;;;;;;;;;;;;-4.82;87.13;99181.72;5063115;28;19950;-66
2022/12/18 00:39:33;;;;;;;;;;;;;;;-4.86;86.88;99181.25;5081749;28;20394;-65
2022/12/18 00:44:43;;;;;;;;;;;;;;;-4.89;86.75;99173.63;5084500;28;19935;-66
2022/12/18 00:47:09;;;;;;;;;;;;;;;-4.88;86.63;99172.63;5081439;28;19928;-66
2022/12/18 00:49:35;;;;;;;;;;;;;;;-4.87;86.71;99163.59;5063813;28;19951;-66
2022/12/18 00:52:02;;;;;;;;;;;;;;;-4.89;86.48;99170.97;5084463;28;20397;-66
2022/12/18 00:54:27;;;;;;;;;;;;;;;-4.90;86.67;99151.50;5067137;28;19928;-65
2022/12/18 00:56:54;;;;;;;;;;;;;;;-4.95;86.49;99145.06;5084237;28;19935;-66
2022/12/18 00:59:20;;;;;;;;;;;;;;;-4.93;86.43;99143.03;5066930;28;19935;-67
2022/12/18 01:01:46;;;;;;;;;;;;;;;-4.89;86.46;99125.63;5082411;28;19928;-66
2022/12/18 01:04:12;;;;;;;;;;;;;;;-4.86;86.31;99125.25;5085290;28;19935;-66
2022/12/18 01:06:38;;;;;;;;;;;;;;;-4.88;86.16;99128.13;5080906;28;19955;-66
2022/12/18 01:09:05;;;;;;;;;;;;;;;-4.89;86.01;99113.13;5062919;28;19996;-66
2022/12/18 01:11:31;;;;;;;;;;;;;;;-4.92;86.04;99113.50;5064203;28;19928;-67
2022/12/18 01:14:00;;;;;;;;;;;;;;;-4.98;85.99;99108.94;5083220;28;19928;-66
2022/12/18 01:16:25;;;;;;;;;;;;;;;-4.99;85.95;99118.78;5084364;28;20027;-66
2022/12/18 01:18:52;;;;;;;;;;;;;;;-4.93;85.79;99105.69;5065780;28;20027;-66
2022/12/18 01:21:18;;;;;;;;;;;;;;;-4.93;85.79;99109.16;5070707;28;19931;-66
2022/12/18 01:23:44;;;;;;;;;;;;;;;-4.84;85.78;99104.53;5069283;28;20267;-66
2022/12/18 01:26:12;;;;;;;;;;;;;;;-4.86;85.12;99103.91;5088132;28;19928;-66
2022/12/18 01:28:38;;;;;;;;;;;;;;;-4.87;84.97;99096.91;5068229;28;19953;-66
2022/12/18 01:31:11;;;;;;;;;;;;;;;-4.91;84.86;99103.66;5070015;28;19927;-66
2022/12/18 01:33:37;;;;;;;;;;;;;;;-4.92;84.62;99102.00;5085913;28;19928;-66
2022/12/18 01:36:05;;;;;;;;;;;;;;;-4.90;84.80;99108.81;5068822;28;19928;-66
2022/12/18 01:38:30;;;;;;;;;;;;;;;-4.87;84.82;99115.59;5087615;28;20238;-66
2022/12/18 01:40:57;;;;;;;;;;;;;;;-4.85;84.59;99110.88;5067656;28;19997;-66
2022/12/18 01:43:40;;;;;;;;;;;;;;;-4.82;84.50;99102.53;5089267;28;19928;-66
2022/12/18 01:46:05;;;;;;;;;;;;;;;-4.91;84.49;99095.66;5050906;28;19928;-68
2022/12/18 01:48:31;;;;;;;;;;;;;;;-4.85;84.36;99089.53;5086030;28;19951;-66
2022/12/18 01:51:00;;;;;;;;;;;;;;;-4.84;84.16;99092.03;5087334;28;20429;-66
2022/12/18 01:53:25;;;;;;;;;;;;;;;-4.84;84.25;99097.38;5081943;28;19927;-67
2022/12/18 01:55:52;;;;;;;;;;;;;;;-4.85;84.26;99095.72;5087117;28;19932;-67
2022/12/18 01:58:19;;;;;;;;;;;;;;;-4.88;84.20;99108.59;5054202;28;20043;-66
2022/12/18 02:00:46;;;;;;;;;;;;;;;-4.95;84.24;99089.06;5085630;28;19928;-66
2022/12/18 02:03:12;;;;;;;;;;;;;;;-4.86;84.43;99093.22;5047962;28;20035;-66
2022/12/18 02:05:41;;;;;;;;;;;;;;;-4.90;84.29;99091.97;5068052;28;20027;-66
2022/12/18 02:08:10;;;;;;;;;;;;;;;-4.95;84.46;99083.72;5048439;28;19950;-66
2022/12/18 02:10:40;;;;;;;;;;;;;;;-4.99;84.66;99080.63;5103607;28;20322;-66
2022/12/18 02:13:10;;;;;;;;;;;;;;;-4.88;84.84;99071.25;5066680;28;19960;-65
2022/12/18 02:16:02;;;;;;;;;;;;;;;-4.76;85.01;99083.06;5055978;28;20042;-66
2022/12/18 02:18:30;;;;;;;;;;;;;;;-4.71;84.70;99095.84;5084558;28;20319;-66
2022/12/18 02:20:59;;;;;;;;;;;;;;;-4.74;84.67;99091.72;5065849;28;19928;-66
2022/12/18 02:23:35;;;;;;;;;;;;;;;-4.74;84.65;99093.56;5085478;28;19956;-66
2022/12/18 02:26:06;;;;;;;;;;;;;;;-4.82;84.36;99094.53;5068249;28;19935;-67
2022/12/18 02:28:34;;;;;;;;;;;;;;;-4.90;84.32;99076.81;5065854;28;19933;-67
2022/12/18 02:31:06;;;;;;;;;;;;;;;-4.92;84.53;99078.00;5066751;28;19954;-67
2022/12/18 02:33:33;;;;;;;;;;;;;;;-4.88;84.51;99077.44;5066974;28;19928;-67
2022/12/18 02:36:00;;;;;;;;;;;;;;;-4.88;84.50;99074.78;5086437;28;19928;-67
2022/12/18 02:38:28;;;;;;;;;;;;;;;-4.88;84.52;99076.59;5049749;28;19930;-67
2022/12/18 02:40:55;;;;;;;;;;;;;;;-4.86;84.63;99071.91;5066474;28;19974;-66
2022/12/18 02:43:23;;;;;;;;;;;;;;;-4.90;84.24;99083.97;5066419;28;20026;-65
2022/12/18 02:45:52;;;;;;;;;;;;;;;-4.94;84.38;99074.72;5068118;28;20295;-67
2022/12/18 02:48:21;;;;;;;;;;;;;;;-4.93;84.33;99087.03;5066937;28;19927;-66
2022/12/18 02:50:54;;;;;;;;;;;;;;;-4.94;84.45;99085.38;5083633;28;19928;-67
2022/12/18 02:53:24;;;;;;;;;;;;;;;-4.97;84.05;99073.25;5065407;28;20571;-66
2022/12/18 02:55:57;;;;;;;;;;;;;;;-4.96;84.35;99092.75;5082842;28;19974;-67
2022/12/18 02:58:30;;;;;;;;;;;;;;;-4.96;84.44;99096.22;5086093;28;20377;-66
2022/12/18 03:01:07;;;;;;;;;;;;;;;-4.99;84.13;99078.78;5067011;28;19963;-67
2022/12/18 03:03:35;;;;;;;;;;;;;;;-4.93;84.37;99074.50;5084392;28;19939;-66
2022/12/18 03:06:04;;;;;;;;;;;;;;;-4.96;84.11;99066.09;5066392;28;19935;-67
2022/12/18 03:08:33;;;;;;;;;;;;;;;-4.94;84.46;99072.03;5047686;28;20014;-66
2022/12/18 03:11:01;;;;;;;;;;;;;;;-4.92;84.34;99060.16;5047946;28;20051;-66
2022/12/18 03:13:34;;;;;;;;;;;;;;;-5.13;84.50;99031.69;5074009;28;19928;-66
2022/12/18 03:16:02;;;;;;;;;;;;;;;-4.93;84.52;99058.50;5067129;28;19989;-66
2022/12/18 03:18:30;;;;;;;;;;;;;;;-4.94;84.67;99058.72;5065573;28;20272;-66
2022/12/18 03:20:58;;;;;;;;;;;;;;;-4.90;84.58;99060.81;5065748;28;19928;-66
2022/12/18 03:23:27;;;;;;;;;;;;;;;-5.03;84.58;99048.16;5066454;28;19928;-66
2022/12/18 03:25:56;;;;;;;;;;;;;;;-4.96;84.49;99069.56;5084321;28;19957;-66
2022/12/18 03:28:23;;;;;;;;;;;;;;;-4.94;84.56;99085.38;5064291;28;20280;-66
2022/12/18 03:31:00;;;;;;;;;;;;;;;-4.92;84.82;99092.16;5066902;28;19981;-66
2022/12/18 03:33:29;;;;;;;;;;;;;;;-4.90;84.59;99081.31;5067648;28;20027;-66
2022/12/18 03:35:56;;;;;;;;;;;;;;;-4.93;84.55;99085.16;5065838;28;19928;-67
2022/12/18 03:38:22;;;;;;;;;;;;;;;-4.96;84.47;99090.91;5046662;28;19928;-66
2022/12/18 03:40:56;;;;;;;;;;;;;;;-4.98;84.81;99074.25;5045049;28;19936;-66
2022/12/18 03:43:30;;;;;;;;;;;;;;;-4.93;85.00;99081.69;5047257;28;19976;-65
2022/12/18 03:46:00;;;;;;;;;;;;;;;-4.93;85.01;99074.50;5078042;28;20026;-66
2022/12/18 03:48:29;;;;;;;;;;;;;;;-4.92;85.24;99076.16;5085379;28;19934;-65
2022/12/18 03:51:01;;;;;;;;;;;;;;;-4.92;85.29;99057.47;5082322;28;19928;-66
2022/12/18 03:53:31;;;;;;;;;;;;;;;-4.96;85.06;99072.22;5067726;28;19935;-66
2022/12/18 03:55:59;;;;;;;;;;;;;;;-5.07;84.63;99068.22;5065852;28;19967;-67
2022/12/18 03:58:30;;;;;;;;;;;;;;;-5.12;84.95;99066.13;5065466;28;20090;-66
2022/12/18 04:01:08;;;;;;;;;;;;;;;-5.15;84.74;99076.34;5067039;28;19928;-68
2022/12/18 04:03:35;;;;;;;;;;;;;;;-5.17;85.12;99075.72;5082959;28;19943;-68
2022/12/18 04:06:02;;;;;;;;;;;;;;;-5.15;84.98;99065.69;5068083;28;20414;-68
2022/12/18 04:08:28;;;;;;;;;;;;;;;-5.18;84.59;99074.06;5066406;28;19927;-68
2022/12/18 04:11:04;;;;;;;;;;;;;;;-5.21;84.51;99056.63;5065345;28;19927;-69
2022/12/18 04:13:32;;;;;;;;;;;;;;;-5.28;84.50;99066.38;5046514;28;20353;-68
2022/12/18 04:15:59;;;;;;;;;;;;;;;-5.31;84.74;99062.28;5068062;28;19928;-68
2022/12/18 04:18:26;;;;;;;;;;;;;;;-5.35;84.61;99079.63;5066394;28;20331;-68
2022/12/18 04:20:54;;;;;;;;;;;;;;;-5.28;84.72;99095.69;5065629;28;19932;-68
2022/12/18 04:23:19;;;;;;;;;;;;;;;-5.25;85.04;99108.66;5066962;28;20418;-68
2022/12/18 04:25:46;;;;;;;;;;;;;;;-5.20;84.73;99118.75;5066640;28;19928;-69
2022/12/18 04:28:17;;;;;;;;;;;;;;;-5.19;84.73;99117.72;5068692;28;19993;-68
2022/12/18 04:30:43;;;;;;;;;;;;;;;-5.20;84.80;99116.09;5066688;28;19971;-68
2022/12/18 04:33:09;;;;;;;;;;;;;;;-5.21;85.19;99120.59;5065842;28;19934;-68
2022/12/18 04:35:35;;;;;;;;;;;;;;;-5.19;85.65;99126.56;5063853;28;20530;-68
2022/12/18 04:38:02;;;;;;;;;;;;;;;-5.24;85.45;99130.81;5081409;28;20429;-68
2022/12/18 04:40:28;;;;;;;;;;;;;;;-5.28;85.78;99147.19;5082656;28;19966;-68
2022/12/18 04:42:54;;;;;;;;;;;;;;;-5.29;85.88;99150.03;5063645;28;20030;-69
2022/12/18 04:45:20;;;;;;;;;;;;;;;-5.29;85.96;99148.19;5081704;28;20385;-69
2022/12/18 04:47:45;;;;;;;;;;;;;;;-5.27;86.04;99145.34;5081223;28;19939;-69
2022/12/18 04:50:11;;;;;;;;;;;;;;;-5.30;86.01;99161.69;5081866;28;20291;-69
2022/12/18 04:52:37;;;;;;;;;;;;;;;-5.30;86.02;99169.69;5082155;28;20356;-69
2022/12/18 04:55:05;;;;;;;;;;;;;;;-5.29;86.15;99182.00;5067855;28;19974;-68
2022/12/18 04:57:30;;;;;;;;;;;;;;;-5.24;86.16;99174.28;5086786;28;19929;-69
2022/12/18 04:59:56;;;;;;;;;;;;;;;-5.20;86.02;99174.72;5067998;28;19935;-69
2022/12/18 05:02:22;;;;;;;;;;;;;;;-5.19;85.98;99179.88;5086899;28;19928;-69
2022/12/18 05:04:47;;;;;;;;;;;;;;;-5.21;85.81;99194.41;5088395;28;20299;-69
2022/12/18 05:07:13;;;;;;;;;;;;;;;-5.25;nan;99183.28;5082828;28;19932;-70
2022/12/18 05:09:39;;;;;;;;;;;;;;;-5.24;85.77;99181.47;5053295;28;20022;-68
2022/12/18 05:12:06;;;;;;;;;;;;;;;-5.25;85.64;99166.47;5069245;28;20499;-68
2022/12/18 05:14:32;;;;;;;;;;;;;;;-5.28;85.70;99179.19;5071258;28;19928;-68
2022/12/18 05:16:58;;;;;;;;;;;;;;;-5.28;85.55;99186.31;5085404;28;19978;-69
2022/12/18 05:19:23;;;;;;;;;;;;;;;-5.33;85.38;99189.53;5087624;28;20493;-68
2022/12/18 05:21:49;;;;;;;;;;;;;;;-5.34;85.67;99181.75;5083772;28;19927;-69
2022/12/18 05:24:15;;;;;;;;;;;;;;;-5.36;85.78;99186.44;5089555;28;19950;-68
2022/12/18 05:26:40;;;;;;;;;;;;;;;-5.37;85.79;99188.28;5087148;28;20546;-69
2022/12/18 05:29:08;;;;;;;;;;;;;;;-5.39;85.51;99190.31;5087347;28;20019;-68
2022/12/18 05:31:33;;;;;;;;;;;;;;;-5.37;85.96;99208.78;5086156;28;19954;-69
2022/12/18 05:33:59;;;;;;;;;;;;;;;-5.35;85.82;99199.56;5065955;28;19928;-68
2022/12/18 05:36:25;;;;;;;;;;;;;;;-5.37;85.87;99211.44;5087727;28;20015;-68
2022/12/18 05:38:50;;;;;;;;;;;;;;;-5.36;86.27;99219.25;5087919;28;19928;-69
2022/12/18 05:41:16;;;;;;;;;;;;;;;-5.39;85.87;99232.09;5084423;28;20367;-69
2022/12/18 05:43:42;;;;;;;;;;;;;;;-5.40;85.88;99233.97;5085006;28;19959;-68
2022/12/18 05:46:12;;;;;;;;;;;;;;;-5.32;86.12;99236.50;5069773;28;19928;-68
2022/12/18 05:48:38;;;;;;;;;;;;;;;-5.31;86.13;99237.34;5087039;28;20047;-68
2022/12/18 05:51:05;;;;;;;;;;;;;;;-5.32;85.86;99244.50;5088406;28;19960;-68
2022/12/18 05:53:32;;;;;;;;;;;;;;;-5.37;85.81;99249.56;5088419;28;19928;-68
2022/12/18 05:55:59;;;;;;;;;;;;;;;-5.35;85.78;99254.72;5088179;28;19955;-68
2022/12/18 05:58:25;;;;;;;;;;;;;;;-5.34;85.73;99251.06;5084896;28;19928;-68
2022/12/18 06:00:51;;;;;;;;;;;;;;;-5.33;85.76;99266.03;5085888;28;20397;-68
2022/12/18 06:03:18;;;;;;;;;;;;;;;-5.30;85.81;99253.16;5070403;28;19958;-68
2022/12/18 06:05:44;;;;;;;;;;;;;;;-5.28;85.78;99263.63;5084210;28;19932;-68
2022/12/18 06:08:10;;;;;;;;;;;;;;;-5.33;85.65;99263.38;5083510;28;20379;-68
2022/12/18 06:10:36;;;;;;;;;;;;;;;-5.33;85.82;99272.19;5083796;28;19934;-69
2022/12/18 06:13:01;;;;;;;;;;;;;;;-5.33;85.84;99263.38;5085618;28;19928;-68
2022/12/18 06:15:27;;;;;;;;;;;;;;;-5.33;86.06;99266.84;5067337;28;19935;-68
2022/12/18 06:17:53;;;;;;;;;;;;;;;-5.32;86.00;99273.81;5085040;28;20034;-68
2022/12/18 06:20:20;;;;;;;;;;;;;;;-5.30;85.87;99285.16;5086349;28;20019;-68
2022/12/18 06:22:46;;;;;;;;;;;;;;;-5.30;86.28;99287.81;5085220;28;20345;-69
2022/12/18 06:25:11;;;;;;;;;;;;;;;-5.27;86.18;99291.94;5087122;28;19928;-69
2022/12/18 06:27:37;;;;;;;;;;;;;;;-5.27;86.25;99287.44;5065771;28;19935;-66
2022/12/18 06:30:03;;;;;;;;;;;;;;;-5.28;86.26;99288.47;5084556;28;19928;-66
2022/12/18 06:32:29;;;;;;;;;;;;;;;-5.29;86.34;99292.16;5087832;28;19974;-69
2022/12/18 06:34:55;;;;;;;;;;;;;;;-5.28;86.24;99296.47;5087183;28;19927;-68
2022/12/18 06:37:25;;;;;;;;;;;;;;;-5.30;85.94;99305.66;5085387;28;19980;-68
2022/12/18 06:39:51;;;;;;;;;;;;;;;-5.26;86.02;99301.59;5069040;28;19928;-68
2022/12/18 06:42:17;;;;;;;;;;;;;;;-5.25;85.93;99308.56;5063589;28;20241;-68
2022/12/18 06:44:42;;;;;;;;;;;;;;;-5.17;85.98;99328.97;5067673;28;19989;-69
2022/12/18 06:47:08;;;;;;;;;;;;;;;-5.16;85.80;99339.47;5066537;28;20414;-68
2022/12/18 06:49:34;;;;;;;;;;;;;;;-5.16;85.58;99343.97;5086223;28;19932;-68
2022/12/18 06:52:00;;;;;;;;;;;;;;;-5.09;85.35;99346.72;5086451;28;19928;-68
2022/12/18 06:54:27;;;;;;;;;;;;;;;-5.07;85.11;99350.88;5052627;28;19935;-68
2022/12/18 06:56:58;;;;;;;;;;;;;;;-5.08;85.24;99362.56;5065718;28;19928;-68
2022/12/18 06:59:24;;;;;;;;;;;;;;;-5.04;85.15;99373.69;5086168;28;20325;-68
2022/12/18 07:01:50;;;;;;;;;;;;;;;-5.07;84.59;99377.53;5084987;28;19928;-66
2022/12/18 07:04:16;;;;;;;;;;;;;;;-5.05;84.48;99375.53;5066634;28;19981;-66
2022/12/18 07:06:41;;;;;;;;;;;;;;;-5.01;84.10;99378.66;5067841;28;20406;-68
2022/12/18 07:09:07;;;;;;;;;;;;;;;-5.01;84.05;99379.47;5083507;28;19938;-72
2022/12/18 07:11:34;;;;;;;;;;;;;;;-4.98;84.04;99375.63;5082635;28;19982;-69
2022/12/18 07:14:00;;;;;;;;;;;;;;;-5.00;83.51;99369.66;5084308;28;19970;-69
2022/12/18 07:16:28;;;;;;;;;;;;;;;-5.00;83.26;99374.97;5084340;28;19963;-69
2022/12/18 07:18:54;;;;;;;;;;;;;;;-4.96;83.04;99367.44;5067968;28;20019;-69
2022/12/18 07:21:20;;;;;;;;;;;;;;;-4.93;83.27;99383.88;5065300;28;19951;-69
2022/12/18 07:23:47;;;;;;;;;;;;;;;-4.86;83.09;99387.50;5079399;28;19927;-70
2022/12/18 07:26:13;;;;;;;;;;;;;;;-4.88;82.38;99392.19;5060895;28;20444;-70
2022/12/18 07:28:41;;;;;;;;;;;;;;;-4.89;82.55;99405.69;5081777;28;19982;-69
2022/12/18 07:31:08;;;;;;;;;;;;;;;-4.86;82.30;99402.66;5081275;28;19928;-69
2022/12/18 07:33:34;;;;;;;;;;;;;;;-4.87;82.24;99415.19;5084658;28;20396;-66
2022/12/18 07:36:00;;;;;;;;;;;;;;;-4.84;82.38;99416.63;5065282;28;20494;-67
2022/12/18 07:38:25;;;;;;;;;;;;;;;-4.89;81.65;99422.53;4372678;28;10000118;-67
2022/12/18 07:40:51;;;;;;;;;;;;;;;-4.90;81.50;99422.72;5057448;28;20342;-66
2022/12/18 07:43:17;;;;;;;;;;;;;;;-4.91;81.15;99419.22;5060176;28;19928;-66
2022/12/18 07:45:45;;;;;;;;;;;;;;;-4.89;81.04;99419.03;5061752;28;19937;-66
2022/12/18 07:48:10;;;;;;;;;;;;;;;-4.90;81.03;99412.03;5043766;28;20019;-66
2022/12/18 07:50:37;;;;;;;;;;;;;;;-4.90;81.30;99436.88;5060008;28;19985;-66
2022/12/18 07:53:04;;;;;;;;;;;;;;;-4.84;81.08;99435.31;5061243;28;19934;-66
2022/12/18 07:55:30;;;;;;;;;;;;;;;-4.91;80.56;99416.56;5045701;28;20454;-66
2022/12/18 07:57:56;;;;;;;;;;;;;;;-4.89;80.87;99422.53;5060270;28;19928;-66
2022/12/18 08:00:22;;;;;;;;;;;;;;;-4.89;80.99;99432.38;5060682;28;20021;-67
2022/12/18 08:02:49;;;;;;;;;;;;;;;-4.87;80.91;99433.00;5076923;28;19935;-67
2022/12/18 08:05:15;;;;;;;;;;;;;;;-4.91;80.18;99437.91;5079109;28;20022;-66
2022/12/18 08:07:40;;;;;;;;;;;;;;;-4.89;80.34;99437.69;5074595;28;19928;-67
2022/12/18 08:10:07;;;;;;;;;;;;;;;-4.88;80.61;99445.53;5076613;28;20036;-66
2022/12/18 08:12:32;;;;;;;;;;;;;;;-4.86;80.56;99448.84;5064909;28;20007;-67
2022/12/18 08:14:58;;;;;;;;;;;;;;;-4.82;80.70;99453.81;5084355;28;20298;-66
2022/12/18 08:17:24;;;;;;;;;;;;;;;-4.76;80.94;99461.06;5083173;28;19928;-66
2022/12/18 08:19:51;;;;;;;;;;;;;;;-4.74;80.64;99472.41;5082448;28;19959;-70
2022/12/18 08:22:17;;;;;;;;;;;;;;;-4.74;80.36;99486.56;5084378;28;19932;-67
2022/12/18 08:24:42;;;;;;;;;;;;;;;-4.68;80.39;99492.16;5082402;28;19928;-67
2022/12/18 08:27:08;;;;;;;;;;;;;;;-4.67;80.27;99489.34;5062939;28;19928;-67
2022/12/18 08:29:34;;;;;;;;;;;;;;;-4.74;79.72;99502.56;5084201;28;19931;-67
2022/12/18 08:31:59;;;;;;;;;;;;;;;-4.73;80.01;99504.22;5071403;28;20459;-67
2022/12/18 08:34:25;;;;;;;;;;;;;;;-4.70;80.07;99505.72;5087844;28;20034;-70
2022/12/18 08:36:52;;;;;;;;;;;;;;;-4.70;79.99;99498.53;5088555;28;19928;-69
2022/12/18 08:39:18;;;;;;;;;;;;;;;-4.72;79.81;99507.75;5087128;28;19928;-70
2022/12/18 08:44:37;;;;;;;;;;;;;;;-4.73;80.01;99514.91;5071358;28;19935;-70
2022/12/18 08:44:48;;;;;;;;;;;;;;;-4.67;80.45;99509.88;5090816;28;20019;-69
2022/12/18 08:47:13;;;;;;;;;;;;;;;-4.65;80.31;99521.19;5086521;28;19928;-69
2022/12/18 08:49:40;;;;;;;;;;;;;;;-4.62;80.31;99518.16;5068071;28;19935;-69
2022/12/18 08:52:07;;;;;;;;;;;;;;;-4.58;80.14;99520.28;5086053;28;20286;-69
2022/12/18 08:54:33;;;;;;;;;;;;;;;-4.57;79.99;99523.75;5088128;28;19928;-69
2022/12/18 08:56:59;;;;;;;;;;;;;;;-4.59;79.95;99525.78;5085291;28;19934;-69
2022/12/18 08:59:24;;;;;;;;;;;;;;;-4.53;79.84;99532.22;5086145;28;19943;-69
2022/12/18 09:01:50;;;;;;;;;;;;;;;-4.50;79.69;99527.38;5088554;28;19928;-69
2022/12/18 09:04:15;;;;;;;;;;;;;;;-4.47;79.79;99531.50;5088615;28;19928;-69
2022/12/18 09:06:41;;;;;;;;;;;;;;;-4.48;79.99;99514.66;5086007;28;19932;-69
2022/12/18 09:09:09;;;;;;;;;;;;;;;-4.48;80.38;99521.81;5085990;28;19967;-69
2022/12/18 09:11:34;;;;;;;;;;;;;;;-4.47;80.48;99523.47;5086159;28;19971;-69
2022/12/18 09:14:01;;;;;;;;;;;;;;;-4.45;80.55;99524.97;5085748;28;20431;-69
2022/12/18 09:16:27;;;;;;;;;;;;;;;-4.41;80.63;99542.28;5068913;28;19928;-69
2022/12/18 09:18:59;;;;;;;;;;;;;;;-4.37;80.73;99548.06;5070624;28;19927;-70
2022/12/18 09:21:26;;;;;;;;;;;;;;;-4.36;80.45;99560.41;5087268;28;19938;-69
2022/12/18 09:23:52;;;;;;;;;;;;;;;-4.37;79.89;99563.25;5087094;28;19928;-69
2022/12/18 09:26:19;;;;;;;;;;;;;;;-4.42;80.02;99577.16;5051689;28;19954;-69
2022/12/18 09:28:45;;;;;;;;;;;;;;;-4.47;79.78;99575.03;5066295;28;19950;-69
2022/12/18 09:31:14;;;;;;;;;;;;;;;-4.45;79.95;99577.50;5086586;28;20379;-69
2022/12/18 09:33:39;;;;;;;;;;;;;;;-4.37;80.05;99565.91;5067842;28;19978;-69
2022/12/18 09:36:06;;;;;;;;;;;;;;;-4.32;80.10;99576.91;5067896;28;19959;-69
2022/12/18 09:38:33;;;;;;;;;;;;;;;-4.33;80.33;99569.91;5069775;28;19928;-69
2022/12/18 09:41:00;;;;;;;;;;;;;;;-4.32;80.13;99571.56;5086854;28;19932;-70
2022/12/18 09:43:29;;;;;;;;;;;;;;;-4.33;80.04;99586.75;5068133;28;19935;-69
2022/12/18 09:45:58;;;;;;;;;;;;;;;-4.33;80.08;99589.41;5085419;28;19934;-69
2022/12/18 09:48:26;;;;;;;;;;;;;;;-4.27;80.43;99588.69;5083300;28;19928;-69
2022/12/18 09:50:53;;;;;;;;;;;;;;;-4.24;80.58;99605.38;5087650;28;20026;-66
2022/12/18 09:53:22;;;;;;;;;;;;;;;-4.28;80.55;99594.22;5068298;28;19928;-66
2022/12/18 09:55:48;;;;;;;;;;;;;;;-4.31;80.58;99598.06;5086777;28;20230;-66
2022/12/18 09:58:16;;;;;;;;;;;;;;;-4.29;80.88;99605.91;5086867;28;19928;-66
2022/12/18 10:00:47;;;;;;;;;;;;;;;-4.22;81.15;99589.97;5086935;28;20034;-67
2022/12/18 10:03:14;;;;;;;;;;;;;;;-4.20;80.93;99587.94;5066563;28;19928;-66
2022/12/18 10:05:43;;;;;;;;;;;;;;;-4.21;81.15;99592.47;5067217;28;19932;-66
2022/12/18 10:08:13;;;;;;;;;;;;;;;-4.19;81.07;99610.97;5083552;28;20027;-66
2022/12/18 10:10:43;;;;;;;;;;;;;;;-4.17;81.24;99612.47;5067729;28;19971;-67
2022/12/18 10:13:14;;;;;;;;;;;;;;;-4.14;81.41;99614.75;5085407;28;19932;-66
2022/12/18 10:15:42;;;;;;;;;;;;;;;-4.15;81.16;99605.09;5087159;28;19971;-66
2022/12/18 10:18:18;;;;;;;;;;;;;;;-4.20;81.17;99615.50;5071094;28;20326;-67
2022/12/18 10:20:46;;;;;;;;;;;;;;;-4.20;81.44;99607.50;5087996;28;20023;-66
2022/12/18 10:23:15;;;;;;;;;;;;;;;-4.19;81.20;99614.47;5069063;28;20221;-67
2022/12/18 10:25:45;;;;;;;;;;;;;;;-4.16;81.43;99600.75;5086976;28;19928;-66
2022/12/18 10:28:12;;;;;;;;;;;;;;;-4.19;81.21;99613.66;5067112;28;20426;-66
2022/12/18 10:30:38;;;;;;;;;;;;;;;-4.24;81.30;99614.19;5086803;28;19928;-67
2022/12/18 10:33:04;;;;;;;;;;;;;;;-4.30;81.41;99594.38;5089602;28;19974;-69
2022/12/18 10:35:32;;;;;;;;;;;;;;;-4.32;81.06;99606.28;5069248;28;19967;-69
2022/12/18 10:38:05;;;;;;;;;;;;;;;-4.36;81.11;99607.66;5086727;28;20337;-69
2022/12/18 10:40:31;;;;;;;;;;;;;;;-4.41;81.46;99611.69;5067726;28;19928;-69
2022/12/18 10:43:04;;;;;;;;;;;;;;;-4.36;81.47;99621.81;5085175;28;20023;-70
2022/12/18 10:45:29;;;;;;;;;;;;;;;-4.34;81.73;99622.47;5087761;28;19928;-69
2022/12/18 10:47:55;;;;;;;;;;;;;;;-4.32;81.64;99627.63;5085283;28;20391;-69
2022/12/18 10:50:26;;;;;;;;;;;;;;;-4.36;81.68;99637.84;5068123;28;19974;-69
2022/12/18 10:52:55;;;;;;;;;;;;;;;-4.35;81.75;99647.50;5084699;28;20457;-69
2022/12/18 10:55:21;;;;;;;;;;;;;;;-4.33;81.89;99642.00;5067000;28;19928;-66
2022/12/18 10:57:47;;;;;;;;;;;;;;;-4.37;82.29;99673.56;5050033;28;19935;-64
2022/12/18 11:00:23;;;;;;;;;;;;;;;-4.35;82.45;99676.06;5082785;28;20232;-64
2022/12/18 11:02:51;;;;;;;;;;;;;;;-4.37;82.26;99681.56;5086225;28;19974;-65
2022/12/18 11:05:25;;;;;;;;;;;;;;;-4.38;82.25;99681.72;5068899;28;20015;-64
2022/12/18 11:07:53;;;;;;;;;;;;;;;-4.35;82.57;99681.41;5085822;28;19969;-65
2022/12/18 11:10:21;;;;;;;;;;;;;;;-4.36;82.71;99693.91;5081408;28;19968;-64
2022/12/18 11:12:47;;;;;;;;;;;;;;;-4.38;82.81;99697.75;5059463;28;19951;-65
2022/12/18 11:15:16;;;;;;;;;;;;;;;-4.39;82.87;99701.44;5083750;28;20015;-65
2022/12/18 11:17:42;;;;;;;;;;;;;;;-4.47;82.59;99702.31;5085009;28;19928;-64
2022/12/18 11:20:19;;;;;;;;;;;;;;;-4.51;83.16;99693.88;5067326;28;19928;-64
2022/12/18 11:22:54;;;;;;;;;;;;;;;-4.52;83.30;99684.19;5029912;28;20441;-64
2022/12/18 11:25:21;;;;;;;;;;;;;;;-4.51;83.84;99690.34;4731869;28;9999786;-64
2022/12/18 11:27:48;;;;;;;;;;;;;;;-4.53;84.16;99690.53;5082231;28;19950;-65
2022/12/18 11:30:21;;;;;;;;;;;;;;;-4.56;84.45;99691.72;5063805;28;19993;-66
2022/12/18 11:32:48;;;;;;;;;;;;;;;-4.57;84.53;99705.25;5046354;28;20452;-64
2022/12/18 11:35:17;;;;;;;;;;;;;;;-4.53;84.85;99693.19;5080559;28;20403;-64
2022/12/18 11:37:46;;;;;;;;;;;;;;;-4.53;84.72;99703.06;5080803;28;20351;-64
2022/12/18 11:40:14;;;;;;;;;;;;;;;-4.51;84.72;99711.72;5061316;28;19928;-64
2022/12/18 11:42:45;;;;;;;;;;;;;;;-4.52;84.63;99715.38;5079561;28;19927;-64
2022/12/18 11:45:24;;;;;;;;;;;;;;;-4.52;84.68;99712.72;5061139;28;19928;-64
2022/12/18 11:47:55;;;;;;;;;;;;;;;-4.47;84.68;99716.50;5078194;28;19935;-64
2022/12/18 11:50:23;;;;;;;;;;;;;;;-4.44;84.52;99720.69;5080064;28;19981;-64
2022/12/18 11:52:50;;;;;;;;;;;;;;;-4.40;84.35;99729.97;5086990;28;19928;-64
2022/12/18 11:55:20;;;;;;;;;;;;;;;-4.39;84.12;99738.81;5067150;28;19963;-64
2022/12/18 11:57:52;;;;;;;;;;;;;;;-4.38;84.42;99745.81;5082714;28;19944;-64
2022/12/18 12:00:18;;;;;;;;;;;;;;;-4.45;84.42;99732.34;5065558;28;20476;-64
2022/12/18 12:03:11;;;;;;;;;;;;;;;-4.36;84.20;99754.50;5031029;28;19932;-64
2022/12/18 12:05:44;;;;;;;;;;;;;;;-4.34;84.28;99763.97;5036753;28;19935;-65
2022/12/18 12:08:18;;;;;;;;;;;;;;;-4.37;84.22;99758.16;5083872;28;19928;-64
2022/12/18 12:10:52;;;;;;;;;;;;;;;-4.47;83.97;99767.25;5067203;28;20359;-64
2022/12/18 12:13:26;;;;;;;;;;;;;;;-4.52;83.92;99771.44;5082988;28;19928;-64
2022/12/18 12:16:00;;;;;;;;;;;;;;;-4.58;84.01;99791.66;5079945;28;19928;-64
2022/12/18 12:18:33;;;;;;;;;;;;;;;-4.64;83.74;99793.19;5096426;28;19951;-64
2022/12/18 12:21:03;;;;;;;;;;;;;;;-4.64;84.19;99789.69;5083313;28;19956;-65
2022/12/18 12:23:35;;;;;;;;;;;;;;;-4.66;84.11;99787.19;5066441;28;19928;-64
2022/12/18 12:26:03;;;;;;;;;;;;;;;-4.67;83.98;99803.41;5085393;28;19991;-65
2022/12/18 12:28:41;;;;;;;;;;;;;;;-4.65;84.32;99796.03;5084719;28;19964;-64
2022/12/18 12:31:13;;;;;;;;;;;;;;;-4.68;84.14;99810.56;5058321;28;20023;-65
2022/12/18 12:33:42;;;;;;;;;;;;;;;-4.69;83.94;99806.22;5047872;28;20036;-66
2022/12/18 12:36:17;;;;;;;;;;;;;;;-4.71;83.93;99822.41;5061280;28;19935;-66
2022/12/18 12:38:45;;;;;;;;;;;;;;;-4.69;84.09;99816.91;5063791;28;19929;-66
2022/12/18 12:44:03;;;;;;;;;;;;;;;-4.70;84.11;99831.25;5038921;28;19950;-66
2022/12/18 12:46:31;;;;;;;;;;;;;;;-4.68;84.28;99831.06;5043912;28;19929;-65
2022/12/18 12:48:58;;;;;;;;;;;;;;;-4.66;84.40;99837.91;5060593;28;19928;-66
2022/12/18 12:51:26;;;;;;;;;;;;;;;-4.67;84.08;99843.44;5063731;28;19986;-67
2022/12/18 12:53:52;;;;;;;;;;;;;;;-4.73;83.83;99842.28;5072635;28;19967;-66